sensor_id;sensor_type;location;lat;lon;timestamp;P1;durP1;ratioP1;P2;durP2;ratioP2
55316;SDS011;41178;48.956;8.130;2022-08-18T00:00:55;6.18;;;4.57;;
55316;SDS011;41178;48.956;8.130;2022-08-18T00:03:04;6.97;;;4.85;;
55316;SDS011;41178;48.956;8.130;2022-08-18T00:05:27;5.90;;;4.90;;
55316;SDS011;41178;48.956;8.130;2022-08-18T00:07:31;5.78;;;4.85;;
55316;SDS011;41178;48.956;8.130;2022-08-18T00:09:34;5.40;;;4.90;;
55316;SDS011;41178;48.956;8.130;2022-08-18T00:11:39;5.03;;;4.50;;
55316;SDS011;41178;48.956;8.130;2022-08-18T00:13:43;6.10;;;4.95;;
55316;SDS011;41178;48.956;8.130;2022-08-18T00:15:45;6.38;;;5.28;;
55316;SDS011;41178;48.956;8.130;2022-08-18T00:17:49;6.35;;;5.03;;
55316;SDS011;41178;48.956;8.130;2022-08-18T00:19:51;5.68;;;5.07;;
55316;SDS011;41178;48.956;8.130;2022-08-18T00:21:53;5.80;;;5.13;;
55316;SDS011;41178;48.956;8.130;2022-08-18T00:23:55;5.95;;;5.40;;
55316;SDS011;41178;48.956;8.130;2022-08-18T00:25:56;6.10;;;4.95;;
55316;SDS011;41178;48.956;8.130;2022-08-18T00:27:59;5.68;;;5.05;;
55316;SDS011;41178;48.956;8.130;2022-08-18T00:30:02;6.60;;;5.18;;
55316;SDS011;41178;48.956;8.130;2022-08-18T00:32:16;6.43;;;5.05;;
55316;SDS011;41178;48.956;8.130;2022-08-18T00:34:19;5.28;;;4.78;;
55316;SDS011;41178;48.956;8.130;2022-08-18T00:36:21;5.45;;;4.93;;
55316;SDS011;41178;48.956;8.130;2022-08-18T00:38:22;6.55;;;5.43;;
55316;SDS011;41178;48.956;8.130;2022-08-18T00:40:29;7.13;;;5.38;;
55316;SDS011;41178;48.956;8.130;2022-08-18T00:42:43;5.70;;;5.10;;
55316;SDS011;41178;48.956;8.130;2022-08-18T00:44:48;5.70;;;5.18;;
55316;SDS011;41178;48.956;8.130;2022-08-18T00:46:49;6.07;;;5.35;;
55316;SDS011;41178;48.956;8.130;2022-08-18T00:48:51;5.97;;;5.38;;
55316;SDS011;41178;48.956;8.130;2022-08-18T00:50:54;5.57;;;5.07;;
55316;SDS011;41178;48.956;8.130;2022-08-18T00:53:24;6.43;;;5.30;;
55316;SDS011;41178;48.956;8.130;2022-08-18T00:55:29;6.45;;;5.10;;
55316;SDS011;41178;48.956;8.130;2022-08-18T00:57:33;6.47;;;5.00;;
55316;SDS011;41178;48.956;8.130;2022-08-18T00:59:38;5.65;;;5.10;;
55316;SDS011;41178;48.956;8.130;2022-08-18T01:01:42;5.93;;;5.32;;
55316;SDS011;41178;48.956;8.130;2022-08-18T01:03:45;6.22;;;5.30;;
55316;SDS011;41178;48.956;8.130;2022-08-18T01:06:08;6.10;;;5.28;;
55316;SDS011;41178;48.956;8.130;2022-08-18T01:08:16;6.15;;;5.55;;
55316;SDS011;41178;48.956;8.130;2022-08-18T01:10:30;6.97;;;5.70;;
55316;SDS011;41178;48.956;8.130;2022-08-18T01:12:33;6.57;;;5.55;;
55316;SDS011;41178;48.956;8.130;2022-08-18T01:14:46;6.13;;;5.53;;
55316;SDS011;41178;48.956;8.130;2022-08-18T01:16:49;8.20;;;5.85;;
55316;SDS011;41178;48.956;8.130;2022-08-18T01:19:09;6.18;;;4.85;;
55316;SDS011;41178;48.956;8.130;2022-08-18T01:21:30;6.45;;;5.60;;
55316;SDS011;41178;48.956;8.130;2022-08-18T01:23:54;7.25;;;5.80;;
55316;SDS011;41178;48.956;8.130;2022-08-18T01:25:56;6.80;;;4.90;;
55316;SDS011;41178;48.956;8.130;2022-08-18T01:28:01;7.50;;;5.55;;
55316;SDS011;41178;48.956;8.130;2022-08-18T01:30:04;6.10;;;5.50;;
55316;SDS011;41178;48.956;8.130;2022-08-18T01:32:12;6.35;;;5.65;;
55316;SDS011;41178;48.956;8.130;2022-08-18T01:34:20;6.38;;;5.50;;
55316;SDS011;41178;48.956;8.130;2022-08-18T01:36:25;7.60;;;5.80;;
55316;SDS011;41178;48.956;8.130;2022-08-18T01:38:28;6.38;;;5.72;;
55316;SDS011;41178;48.956;8.130;2022-08-18T01:40:32;7.85;;;5.13;;
55316;SDS011;41178;48.956;8.130;2022-08-18T01:42:54;6.88;;;5.60;;
55316;SDS011;41178;48.956;8.130;2022-08-18T01:44:56;8.40;;;5.78;;
55316;SDS011;41178;48.956;8.130;2022-08-18T01:46:58;6.50;;;5.57;;
55316;SDS011;41178;48.956;8.130;2022-08-18T01:49:00;6.03;;;5.43;;
55316;SDS011;41178;48.956;8.130;2022-08-18T01:51:07;6.47;;;5.78;;
55316;SDS011;41178;48.956;8.130;2022-08-18T01:53:10;6.57;;;5.20;;
55316;SDS011;41178;48.956;8.130;2022-08-18T01:55:11;7.95;;;5.93;;
55316;SDS011;41178;48.956;8.130;2022-08-18T01:57:15;6.28;;;5.53;;
55316;SDS011;41178;48.956;8.130;2022-08-18T01:59:17;7.07;;;5.45;;
55316;SDS011;41178;48.956;8.130;2022-08-18T02:01:21;9.38;;;6.10;;
55316;SDS011;41178;48.956;8.130;2022-08-18T02:03:38;7.45;;;5.88;;
55316;SDS011;41178;48.956;8.130;2022-08-18T02:05:44;6.90;;;5.78;;
55316;SDS011;41178;48.956;8.130;2022-08-18T02:07:49;6.88;;;5.25;;
55316;SDS011;41178;48.956;8.130;2022-08-18T02:09:54;7.30;;;5.67;;
55316;SDS011;41178;48.956;8.130;2022-08-18T02:11:59;6.43;;;5.38;;
55316;SDS011;41178;48.956;8.130;2022-08-18T02:14:01;6.88;;;6.18;;
55316;SDS011;41178;48.956;8.130;2022-08-18T02:16:03;6.68;;;5.45;;
55316;SDS011;41178;48.956;8.130;2022-08-18T02:18:05;6.27;;;5.67;;
55316;SDS011;41178;48.956;8.130;2022-08-18T02:20:08;7.67;;;6.50;;
55316;SDS011;41178;48.956;8.130;2022-08-18T02:22:14;7.15;;;5.80;;
55316;SDS011;41178;48.956;8.130;2022-08-18T02:24:18;6.60;;;5.82;;
55316;SDS011;41178;48.956;8.130;2022-08-18T02:26:20;5.90;;;5.30;;
55316;SDS011;41178;48.956;8.130;2022-08-18T02:28:23;6.93;;;5.97;;
55316;SDS011;41178;48.956;8.130;2022-08-18T02:30:30;5.83;;;5.27;;
55316;SDS011;41178;48.956;8.130;2022-08-18T02:32:34;6.38;;;5.78;;
55316;SDS011;41178;48.956;8.130;2022-08-18T02:34:36;6.00;;;5.40;;
55316;SDS011;41178;48.956;8.130;2022-08-18T02:36:38;7.63;;;5.47;;
55316;SDS011;41178;48.956;8.130;2022-08-18T02:38:40;7.20;;;5.70;;
55316;SDS011;41178;48.956;8.130;2022-08-18T02:40:43;7.33;;;5.90;;
55316;SDS011;41178;48.956;8.130;2022-08-18T02:42:46;5.93;;;5.43;;
55316;SDS011;41178;48.956;8.130;2022-08-18T02:44:48;8.70;;;6.13;;
55316;SDS011;41178;48.956;8.130;2022-08-18T02:46:51;9.90;;;6.20;;
55316;SDS011;41178;48.956;8.130;2022-08-18T02:48:54;6.03;;;5.43;;
55316;SDS011;41178;48.956;8.130;2022-08-18T02:53:01;7.25;;;6.10;;
55316;SDS011;41178;48.956;8.130;2022-08-18T02:55:03;8.18;;;6.07;;
55316;SDS011;41178;48.956;8.130;2022-08-18T02:57:07;6.47;;;5.32;;
55316;SDS011;41178;48.956;8.130;2022-08-18T02:59:14;7.07;;;6.00;;
55316;SDS011;41178;48.956;8.130;2022-08-18T03:01:19;6.43;;;5.65;;
55316;SDS011;41178;48.956;8.130;2022-08-18T03:03:22;6.43;;;5.72;;
55316;SDS011;41178;48.956;8.130;2022-08-18T03:05:23;6.57;;;5.78;;
55316;SDS011;41178;48.956;8.130;2022-08-18T03:07:25;6.65;;;5.88;;
55316;SDS011;41178;48.956;8.130;2022-08-18T03:09:27;6.68;;;6.00;;
55316;SDS011;41178;48.956;8.130;2022-08-18T03:11:29;6.30;;;5.38;;
55316;SDS011;41178;48.956;8.130;2022-08-18T03:13:32;7.97;;;6.18;;
55316;SDS011;41178;48.956;8.130;2022-08-18T03:15:33;7.68;;;5.75;;
55316;SDS011;41178;48.956;8.130;2022-08-18T03:17:35;7.10;;;5.55;;
55316;SDS011;41178;48.956;8.130;2022-08-18T03:19:38;8.20;;;5.80;;
55316;SDS011;41178;48.956;8.130;2022-08-18T03:21:39;6.57;;;5.97;;
55316;SDS011;41178;48.956;8.130;2022-08-18T03:23:45;6.30;;;5.68;;
55316;SDS011;41178;48.956;8.130;2022-08-18T03:26:02;6.13;;;5.53;;
55316;SDS011;41178;48.956;8.130;2022-08-18T03:28:04;6.45;;;5.82;;
55316;SDS011;41178;48.956;8.130;2022-08-18T03:30:07;7.57;;;5.80;;
55316;SDS011;41178;48.956;8.130;2022-08-18T03:32:11;6.13;;;5.53;;
55316;SDS011;41178;48.956;8.130;2022-08-18T03:34:13;6.30;;;5.57;;
55316;SDS011;41178;48.956;8.130;2022-08-18T03:36:17;6.32;;;5.68;;
55316;SDS011;41178;48.956;8.130;2022-08-18T03:38:22;5.95;;;5.35;;
55316;SDS011;41178;48.956;8.130;2022-08-18T03:40:23;6.68;;;5.45;;
55316;SDS011;41178;48.956;8.130;2022-08-18T03:42:25;6.43;;;5.68;;
55316;SDS011;41178;48.956;8.130;2022-08-18T03:44:30;7.25;;;5.50;;
55316;SDS011;41178;48.956;8.130;2022-08-18T03:46:34;6.25;;;5.50;;
55316;SDS011;41178;48.956;8.130;2022-08-18T03:48:36;6.13;;;5.40;;
55316;SDS011;41178;48.956;8.130;2022-08-18T03:50:41;6.47;;;5.60;;
55316;SDS011;41178;48.956;8.130;2022-08-18T03:52:43;6.65;;;5.95;;
55316;SDS011;41178;48.956;8.130;2022-08-18T03:54:48;6.57;;;5.82;;
55316;SDS011;41178;48.956;8.130;2022-08-18T03:56:50;8.27;;;6.03;;
55316;SDS011;41178;48.956;8.130;2022-08-18T03:58:53;7.80;;;6.28;;
55316;SDS011;41178;48.956;8.130;2022-08-18T04:00:57;6.70;;;5.63;;
55316;SDS011;41178;48.956;8.130;2022-08-18T04:03:01;6.82;;;5.93;;
55316;SDS011;41178;48.956;8.130;2022-08-18T04:05:03;6.95;;;6.25;;
55316;SDS011;41178;48.956;8.130;2022-08-18T04:07:07;6.40;;;5.80;;
55316;SDS011;41178;48.956;8.130;2022-08-18T04:09:12;8.68;;;6.03;;
55316;SDS011;41178;48.956;8.130;2022-08-18T04:11:15;7.13;;;6.40;;
55316;SDS011;41178;48.956;8.130;2022-08-18T04:13:16;6.70;;;6.00;;
55316;SDS011;41178;48.956;8.130;2022-08-18T04:15:18;7.40;;;6.25;;
55316;SDS011;41178;48.956;8.130;2022-08-18T04:17:20;6.63;;;5.93;;
55316;SDS011;41178;48.956;8.130;2022-08-18T04:19:25;8.43;;;6.15;;
55316;SDS011;41178;48.956;8.130;2022-08-18T04:21:29;6.68;;;5.97;;
55316;SDS011;41178;48.956;8.130;2022-08-18T04:23:36;8.88;;;6.45;;
55316;SDS011;41178;48.956;8.130;2022-08-18T04:25:44;7.93;;;6.20;;
55316;SDS011;41178;48.956;8.130;2022-08-18T04:27:46;7.88;;;6.28;;
55316;SDS011;41178;48.956;8.130;2022-08-18T04:29:48;7.32;;;6.50;;
55316;SDS011;41178;48.956;8.130;2022-08-18T04:31:50;8.98;;;6.30;;
55316;SDS011;41178;48.956;8.130;2022-08-18T04:33:52;8.98;;;6.35;;
55316;SDS011;41178;48.956;8.130;2022-08-18T04:35:55;7.30;;;6.60;;
55316;SDS011;41178;48.956;8.130;2022-08-18T04:37:57;10.18;;;6.80;;
55316;SDS011;41178;48.956;8.130;2022-08-18T04:39:58;7.93;;;6.18;;
55316;SDS011;41178;48.956;8.130;2022-08-18T04:42:00;10.10;;;6.15;;
55316;SDS011;41178;48.956;8.130;2022-08-18T04:44:05;7.75;;;5.90;;
55316;SDS011;41178;48.956;8.130;2022-08-18T04:46:09;7.57;;;6.00;;
55316;SDS011;41178;48.956;8.130;2022-08-18T04:48:11;7.72;;;6.82;;
55316;SDS011;41178;48.956;8.130;2022-08-18T04:50:13;7.57;;;6.68;;
55316;SDS011;41178;48.956;8.130;2022-08-18T04:52:15;8.02;;;5.97;;
55316;SDS011;41178;48.956;8.130;2022-08-18T04:54:41;8.32;;;6.32;;
55316;SDS011;41178;48.956;8.130;2022-08-18T04:56:43;9.38;;;6.55;;
55316;SDS011;41178;48.956;8.130;2022-08-18T04:58:45;8.32;;;6.57;;
55316;SDS011;41178;48.956;8.130;2022-08-18T05:02:22;7.40;;;6.60;;
55316;SDS011;41178;48.956;8.130;2022-08-18T05:04:24;8.23;;;6.88;;
55316;SDS011;41178;48.956;8.130;2022-08-18T05:06:29;9.35;;;6.88;;
55316;SDS011;41178;48.956;8.130;2022-08-18T05:08:31;9.38;;;7.68;;
55316;SDS011;41178;48.956;8.130;2022-08-18T05:10:33;8.68;;;7.47;;
55316;SDS011;41178;48.956;8.130;2022-08-18T05:12:35;8.50;;;7.15;;
55316;SDS011;41178;48.956;8.130;2022-08-18T05:14:38;8.38;;;6.97;;
55316;SDS011;41178;48.956;8.130;2022-08-18T05:16:44;8.45;;;7.25;;
55316;SDS011;41178;48.956;8.130;2022-08-18T05:18:49;8.57;;;7.63;;
55316;SDS011;41178;48.956;8.130;2022-08-18T05:20:52;8.85;;;6.82;;
55316;SDS011;41178;48.956;8.130;2022-08-18T05:22:56;8.07;;;7.27;;
55316;SDS011;41178;48.956;8.130;2022-08-18T05:24:58;9.75;;;7.00;;
55316;SDS011;41178;48.956;8.130;2022-08-18T05:27:00;8.35;;;7.35;;
55316;SDS011;41178;48.956;8.130;2022-08-18T05:29:03;9.33;;;7.57;;
55316;SDS011;41178;48.956;8.130;2022-08-18T05:31:20;14.27;;;7.60;;
55316;SDS011;41178;48.956;8.130;2022-08-18T05:33:24;8.90;;;8.00;;
55316;SDS011;41178;48.956;8.130;2022-08-18T05:35:28;11.47;;;8.33;;
55316;SDS011;41178;48.956;8.130;2022-08-18T05:37:44;8.60;;;7.57;;
55316;SDS011;41178;48.956;8.130;2022-08-18T05:40:12;8.38;;;7.05;;
55316;SDS011;41178;48.956;8.130;2022-08-18T05:42:15;8.73;;;7.57;;
55316;SDS011;41178;48.956;8.130;2022-08-18T05:44:29;8.50;;;7.60;;
55316;SDS011;41178;48.956;8.130;2022-08-18T05:46:37;8.93;;;8.10;;
55316;SDS011;41178;48.956;8.130;2022-08-18T05:48:46;9.30;;;8.40;;
55316;SDS011;41178;48.956;8.130;2022-08-18T05:50:48;8.27;;;7.35;;
55316;SDS011;41178;48.956;8.130;2022-08-18T05:52:52;8.75;;;7.95;;
55316;SDS011;41178;48.956;8.130;2022-08-18T05:57:51;9.23;;;8.17;;
55316;SDS011;41178;48.956;8.130;2022-08-18T05:59:58;10.63;;;7.40;;
55316;SDS011;41178;48.956;8.130;2022-08-18T06:04:21;8.93;;;7.70;;
55316;SDS011;41178;48.956;8.130;2022-08-18T06:06:28;10.27;;;7.73;;
55316;SDS011;41178;48.956;8.130;2022-08-18T06:08:32;9.75;;;7.82;;
55316;SDS011;41178;48.956;8.130;2022-08-18T06:10:41;10.85;;;8.20;;
55316;SDS011;41178;48.956;8.130;2022-08-18T06:12:48;8.68;;;7.85;;
55316;SDS011;41178;48.956;8.130;2022-08-18T06:14:57;8.82;;;7.47;;
55316;SDS011;41178;48.956;8.130;2022-08-18T06:28:26;9.60;;;8.60;;
55316;SDS011;41178;48.956;8.130;2022-08-18T06:30:56;9.90;;;7.70;;
55316;SDS011;41178;48.956;8.130;2022-08-18T06:35:31;9.53;;;8.53;;
55316;SDS011;41178;48.956;8.130;2022-08-18T06:40:13;10.40;;;8.77;;
55316;SDS011;41178;48.956;8.130;2022-08-18T06:42:18;9.38;;;8.38;;
55316;SDS011;41178;48.956;8.130;2022-08-18T06:44:31;9.60;;;8.60;;
55316;SDS011;41178;48.956;8.130;2022-08-18T06:46:39;12.02;;;8.63;;
55316;SDS011;41178;48.956;8.130;2022-08-18T06:48:55;9.53;;;8.63;;
55316;SDS011;41178;48.956;8.130;2022-08-18T06:51:04;10.23;;;8.35;;
55316;SDS011;41178;48.956;8.130;2022-08-18T06:53:07;9.18;;;8.27;;
55316;SDS011;41178;48.956;8.130;2022-08-18T06:57:56;9.38;;;8.45;;
55316;SDS011;41178;48.956;8.130;2022-08-18T07:00:03;9.38;;;8.40;;
55316;SDS011;41178;48.956;8.130;2022-08-18T07:04:42;10.00;;;8.83;;
55316;SDS011;41178;48.956;8.130;2022-08-18T07:07:11;10.20;;;8.73;;
55316;SDS011;41178;48.956;8.130;2022-08-18T07:09:22;10.32;;;8.68;;
55316;SDS011;41178;48.956;8.130;2022-08-18T07:11:27;11.70;;;9.80;;
55316;SDS011;41178;48.956;8.130;2022-08-18T07:13:37;10.15;;;9.15;;
55316;SDS011;41178;48.956;8.130;2022-08-18T07:15:42;10.75;;;8.80;;
55316;SDS011;41178;48.956;8.130;2022-08-18T07:17:45;10.02;;;8.15;;
55316;SDS011;41178;48.956;8.130;2022-08-18T07:19:59;11.13;;;9.00;;
55316;SDS011;41178;48.956;8.130;2022-08-18T07:24:43;9.73;;;8.70;;
55316;SDS011;41178;48.956;8.130;2022-08-18T07:29:11;9.30;;;8.30;;
55316;SDS011;41178;48.956;8.130;2022-08-18T07:31:19;9.23;;;8.07;;
55316;SDS011;41178;48.956;8.130;2022-08-18T07:33:28;10.27;;;8.10;;
55316;SDS011;41178;48.956;8.130;2022-08-18T07:35:39;9.30;;;8.27;;
55316;SDS011;41178;48.956;8.130;2022-08-18T07:37:47;9.73;;;8.20;;
55316;SDS011;41178;48.956;8.130;2022-08-18T07:42:09;9.20;;;8.30;;
55316;SDS011;41178;48.956;8.130;2022-08-18T07:46:54;8.35;;;7.55;;
55316;SDS011;41178;48.956;8.130;2022-08-18T07:49:01;11.35;;;8.45;;
55316;SDS011;41178;48.956;8.130;2022-08-18T07:51:11;10.25;;;8.38;;
55316;SDS011;41178;48.956;8.130;2022-08-18T07:53:31;11.00;;;8.35;;
55316;SDS011;41178;48.956;8.130;2022-08-18T07:55:39;8.70;;;7.70;;
55316;SDS011;41178;48.956;8.130;2022-08-18T07:58:28;9.38;;;8.32;;
55316;SDS011;41178;48.956;8.130;2022-08-18T08:12:32;10.47;;;9.23;;
55316;SDS011;41178;48.956;8.130;2022-08-18T08:16:49;10.45;;;9.35;;
55316;SDS011;41178;48.956;8.130;2022-08-18T08:24:17;12.75;;;8.25;;
55316;SDS011;41178;48.956;8.130;2022-08-18T08:26:37;11.02;;;9.27;;
55316;SDS011;41178;48.956;8.130;2022-08-18T08:31:25;10.00;;;8.67;;
55316;SDS011;41178;48.956;8.130;2022-08-18T08:33:48;10.35;;;9.25;;
55316;SDS011;41178;48.956;8.130;2022-08-18T08:36:12;11.93;;;10.20;;
55316;SDS011;41178;48.956;8.130;2022-08-18T08:38:21;12.85;;;11.35;;
55316;SDS011;41178;48.956;8.130;2022-08-18T08:45:35;12.90;;;11.55;;
55316;SDS011;41178;48.956;8.130;2022-08-18T08:49:51;13.13;;;11.93;;
55316;SDS011;41178;48.956;8.130;2022-08-18T08:52:02;14.40;;;12.15;;
55316;SDS011;41178;48.956;8.130;2022-08-18T08:54:20;13.95;;;12.65;;
55316;SDS011;41178;48.956;8.130;2022-08-18T08:56:28;13.57;;;12.27;;
55316;SDS011;41178;48.956;8.130;2022-08-18T08:58:37;15.23;;;12.65;;
55316;SDS011;41178;48.956;8.130;2022-08-18T09:00:57;13.75;;;12.45;;
55316;SDS011;41178;48.956;8.130;2022-08-18T09:09:54;13.68;;;12.27;;
55316;SDS011;41178;48.956;8.130;2022-08-18T09:12:48;13.65;;;12.35;;
55316;SDS011;41178;48.956;8.130;2022-08-18T09:17:33;13.93;;;12.52;;
55316;SDS011;41178;48.956;8.130;2022-08-18T09:24:50;13.07;;;11.88;;
55316;SDS011;41178;48.956;8.130;2022-08-18T09:29:15;15.60;;;14.07;;
55316;SDS011;41178;48.956;8.130;2022-08-18T09:31:24;16.25;;;14.55;;
55316;SDS011;41178;48.956;8.130;2022-08-18T09:38:05;17.50;;;15.90;;
55316;SDS011;41178;48.956;8.130;2022-08-18T09:40:29;16.63;;;15.02;;
55316;SDS011;41178;48.956;8.130;2022-08-18T09:43:51;17.45;;;15.75;;
55316;SDS011;41178;48.956;8.130;2022-08-18T09:47:55;16.83;;;14.82;;
55316;SDS011;41178;48.956;8.130;2022-08-18T09:54:27;17.25;;;15.57;;
55316;SDS011;41178;48.956;8.130;2022-08-18T09:58:56;16.38;;;14.88;;
55316;SDS011;41178;48.956;8.130;2022-08-18T10:03:33;15.50;;;14.10;;
55316;SDS011;41178;48.956;8.130;2022-08-18T10:05:35;15.13;;;13.73;;
55316;SDS011;41178;48.956;8.130;2022-08-18T10:07:38;16.40;;;14.70;;
55316;SDS011;41178;48.956;8.130;2022-08-18T10:11:57;15.05;;;13.60;;
55316;SDS011;41178;48.956;8.130;2022-08-18T10:14:13;15.55;;;13.95;;
55316;SDS011;41178;48.956;8.130;2022-08-18T10:16:34;16.13;;;14.52;;
55316;SDS011;41178;48.956;8.130;2022-08-18T10:19:18;15.35;;;13.80;;
55316;SDS011;41178;48.956;8.130;2022-08-18T10:24:11;14.90;;;13.40;;
55316;SDS011;41178;48.956;8.130;2022-08-18T10:28:56;15.95;;;14.35;;
55316;SDS011;41178;48.956;8.130;2022-08-18T10:31:03;16.30;;;14.75;;
55316;SDS011;41178;48.956;8.130;2022-08-18T10:33:10;16.00;;;14.40;;
55316;SDS011;41178;48.956;8.130;2022-08-18T10:37:38;15.68;;;14.25;;
55316;SDS011;41178;48.956;8.130;2022-08-18T10:39:46;15.88;;;14.38;;
55316;SDS011;41178;48.956;8.130;2022-08-18T10:42:33;17.00;;;15.10;;
55316;SDS011;41178;48.956;8.130;2022-08-18T10:44:23;15.50;;;14.00;;
55316;SDS011;41178;48.956;8.130;2022-08-18T10:46:32;15.13;;;13.73;;
55316;SDS011;41178;48.956;8.130;2022-08-18T10:48:57;15.65;;;13.77;;
55316;SDS011;41178;48.956;8.130;2022-08-18T10:51:17;15.40;;;14.00;;
55316;SDS011;41178;48.956;8.130;2022-08-18T11:05:59;14.80;;;13.30;;
55316;SDS011;41178;48.956;8.130;2022-08-18T11:08:03;16.15;;;13.60;;
55316;SDS011;41178;48.956;8.130;2022-08-18T11:10:21;16.02;;;14.60;;
55316;SDS011;41178;48.956;8.130;2022-08-18T11:20:15;18.13;;;16.42;;
55316;SDS011;41178;48.956;8.130;2022-08-18T11:24:32;16.40;;;14.80;;
55316;SDS011;41178;48.956;8.130;2022-08-18T11:26:42;16.45;;;14.85;;
55316;SDS011;41178;48.956;8.130;2022-08-18T11:28:53;17.23;;;15.52;;
55316;SDS011;41178;48.956;8.130;2022-08-18T11:30:55;16.40;;;14.65;;
55316;SDS011;41178;48.956;8.130;2022-08-18T11:32:58;16.73;;;15.13;;
55316;SDS011;41178;48.956;8.130;2022-08-18T11:37:23;16.55;;;15.05;;
55316;SDS011;41178;48.956;8.130;2022-08-18T11:39:27;17.85;;;16.15;;
55316;SDS011;41178;48.956;8.130;2022-08-18T11:41:38;16.10;;;14.52;;
55316;SDS011;41178;48.956;8.130;2022-08-18T11:43:54;15.85;;;14.43;;
55316;SDS011;41178;48.956;8.130;2022-08-18T11:46:00;17.45;;;15.70;;
55316;SDS011;41178;48.956;8.130;2022-08-18T11:52:55;17.70;;;16.00;;
55316;SDS011;41178;48.956;8.130;2022-08-18T11:54:59;18.17;;;16.15;;
55316;SDS011;41178;48.956;8.130;2022-08-18T12:02:44;15.05;;;13.55;;
55316;SDS011;41178;48.956;8.130;2022-08-18T12:04:48;15.40;;;13.88;;
55316;SDS011;41178;48.956;8.130;2022-08-18T12:07:40;14.25;;;12.77;;
55316;SDS011;41178;48.956;8.130;2022-08-18T12:12:29;15.15;;;13.73;;
55316;SDS011;41178;48.956;8.130;2022-08-18T12:14:33;17.45;;;14.88;;
55316;SDS011;41178;48.956;8.130;2022-08-18T12:16:52;15.23;;;13.73;;
55316;SDS011;41178;48.956;8.130;2022-08-18T12:18:55;16.50;;;13.65;;
55316;SDS011;41178;48.956;8.130;2022-08-18T12:20:57;15.38;;;13.90;;
55316;SDS011;41178;48.956;8.130;2022-08-18T12:23:02;14.02;;;12.55;;
55316;SDS011;41178;48.956;8.130;2022-08-18T12:25:07;16.02;;;14.30;;
55316;SDS011;41178;48.956;8.130;2022-08-18T12:27:13;14.05;;;12.75;;
55316;SDS011;41178;48.956;8.130;2022-08-18T12:29:23;14.13;;;12.70;;
55316;SDS011;41178;48.956;8.130;2022-08-18T12:31:37;14.50;;;13.13;;
55316;SDS011;41178;48.956;8.130;2022-08-18T12:33:48;13.73;;;11.93;;
55316;SDS011;41178;48.956;8.130;2022-08-18T12:36:02;13.57;;;12.18;;
55316;SDS011;41178;48.956;8.130;2022-08-18T12:38:05;12.32;;;11.02;;
55316;SDS011;41178;48.956;8.130;2022-08-18T12:40:14;11.68;;;10.57;;
55316;SDS011;41178;48.956;8.130;2022-08-18T12:42:16;11.63;;;10.52;;
55316;SDS011;41178;48.956;8.130;2022-08-18T12:44:19;14.88;;;11.02;;
55316;SDS011;41178;48.956;8.130;2022-08-18T12:46:21;11.05;;;10.02;;
55316;SDS011;41178;48.956;8.130;2022-08-18T12:48:25;11.82;;;10.73;;
55316;SDS011;41178;48.956;8.130;2022-08-18T12:50:30;11.30;;;10.20;;
55316;SDS011;41178;48.956;8.130;2022-08-18T12:52:39;11.73;;;10.52;;
55316;SDS011;41178;48.956;8.130;2022-08-18T12:54:44;11.20;;;10.07;;
55316;SDS011;41178;48.956;8.130;2022-08-18T12:56:56;10.20;;;9.25;;
55316;SDS011;41178;48.956;8.130;2022-08-18T12:58:59;10.88;;;9.88;;
55316;SDS011;41178;48.956;8.130;2022-08-18T13:01:05;10.70;;;9.63;;
55316;SDS011;41178;48.956;8.130;2022-08-18T13:03:07;10.75;;;9.68;;
55316;SDS011;41178;48.956;8.130;2022-08-18T13:05:09;12.60;;;9.73;;
55316;SDS011;41178;48.956;8.130;2022-08-18T13:07:12;11.05;;;9.85;;
55316;SDS011;41178;48.956;8.130;2022-08-18T13:09:19;10.40;;;9.43;;
55316;SDS011;41178;48.956;8.130;2022-08-18T13:11:41;10.60;;;9.60;;
55316;SDS011;41178;48.956;8.130;2022-08-18T13:13:43;11.60;;;10.40;;
55316;SDS011;41178;48.956;8.130;2022-08-18T13:15:48;11.23;;;10.15;;
55316;SDS011;41178;48.956;8.130;2022-08-18T13:18:01;13.00;;;10.70;;
55316;SDS011;41178;48.956;8.130;2022-08-18T13:20:05;11.57;;;10.43;;
55316;SDS011;41178;48.956;8.130;2022-08-18T13:22:13;11.38;;;10.27;;
55316;SDS011;41178;48.956;8.130;2022-08-18T13:24:15;13.13;;;11.82;;
55316;SDS011;41178;48.956;8.130;2022-08-18T13:26:27;10.85;;;9.63;;
55316;SDS011;41178;48.956;8.130;2022-08-18T13:28:32;11.55;;;10.55;;
55316;SDS011;41178;48.956;8.130;2022-08-18T13:30:54;11.90;;;10.70;;
55316;SDS011;41178;48.956;8.130;2022-08-18T13:32:57;11.63;;;10.52;;
55316;SDS011;41178;48.956;8.130;2022-08-18T13:35:11;12.25;;;11.02;;
55316;SDS011;41178;48.956;8.130;2022-08-18T13:37:13;12.30;;;11.00;;
55316;SDS011;41178;48.956;8.130;2022-08-18T13:39:16;12.65;;;11.45;;
55316;SDS011;41178;48.956;8.130;2022-08-18T13:41:20;13.10;;;11.88;;
55316;SDS011;41178;48.956;8.130;2022-08-18T13:43:29;11.50;;;10.38;;
55316;SDS011;41178;48.956;8.130;2022-08-18T13:45:34;11.60;;;10.55;;
55316;SDS011;41178;48.956;8.130;2022-08-18T13:47:37;12.50;;;11.30;;
55316;SDS011;41178;48.956;8.130;2022-08-18T13:49:42;12.70;;;11.38;;
55316;SDS011;41178;48.956;8.130;2022-08-18T13:51:58;12.23;;;11.02;;
55316;SDS011;41178;48.956;8.130;2022-08-18T13:54:01;12.63;;;11.45;;
55316;SDS011;41178;48.956;8.130;2022-08-18T13:56:23;12.43;;;11.23;;
55316;SDS011;41178;48.956;8.130;2022-08-18T13:58:32;11.68;;;10.57;;
55316;SDS011;41178;48.956;8.130;2022-08-18T14:00:33;12.10;;;10.93;;
55316;SDS011;41178;48.956;8.130;2022-08-18T14:02:35;11.68;;;10.57;;
55316;SDS011;41178;48.956;8.130;2022-08-18T14:04:37;12.25;;;11.15;;
55316;SDS011;41178;48.956;8.130;2022-08-18T14:06:39;11.98;;;10.77;;
55316;SDS011;41178;48.956;8.130;2022-08-18T14:08:57;12.80;;;10.07;;
55316;SDS011;41178;48.956;8.130;2022-08-18T14:11:00;12.65;;;11.45;;
55316;SDS011;41178;48.956;8.130;2022-08-18T14:13:03;13.98;;;12.68;;
55316;SDS011;41178;48.956;8.130;2022-08-18T14:15:24;13.13;;;11.80;;
55316;SDS011;41178;48.956;8.130;2022-08-18T14:17:27;12.85;;;11.55;;
55316;SDS011;41178;48.956;8.130;2022-08-18T14:19:28;13.85;;;12.50;;
55316;SDS011;41178;48.956;8.130;2022-08-18T14:21:50;14.82;;;13.35;;
55316;SDS011;41178;48.956;8.130;2022-08-18T14:24:11;14.38;;;12.88;;
55316;SDS011;41178;48.956;8.130;2022-08-18T14:26:36;14.05;;;12.65;;
55316;SDS011;41178;48.956;8.130;2022-08-18T14:28:51;14.85;;;13.35;;
55316;SDS011;41178;48.956;8.130;2022-08-18T14:30:53;15.70;;;14.05;;
55316;SDS011;41178;48.956;8.130;2022-08-18T14:32:56;15.45;;;13.93;;
55316;SDS011;41178;48.956;8.130;2022-08-18T14:35:00;14.80;;;13.35;;
55316;SDS011;41178;48.956;8.130;2022-08-18T14:37:23;13.75;;;12.45;;
55316;SDS011;41178;48.956;8.130;2022-08-18T14:39:25;12.48;;;11.27;;
55316;SDS011;41178;48.956;8.130;2022-08-18T14:41:28;12.80;;;11.60;;
55316;SDS011;41178;48.956;8.130;2022-08-18T14:43:30;14.40;;;13.00;;
55316;SDS011;41178;48.956;8.130;2022-08-18T14:45:54;12.63;;;11.52;;
55316;SDS011;41178;48.956;8.130;2022-08-18T14:47:58;12.30;;;11.10;;
55316;SDS011;41178;48.956;8.130;2022-08-18T14:50:01;12.75;;;10.93;;
55316;SDS011;41178;48.956;8.130;2022-08-18T14:52:03;12.80;;;11.50;;
55316;SDS011;41178;48.956;8.130;2022-08-18T14:54:14;11.27;;;10.27;;
55316;SDS011;41178;48.956;8.130;2022-08-18T14:56:18;11.90;;;9.50;;
55316;SDS011;41178;48.956;8.130;2022-08-18T14:58:23;9.90;;;9.00;;
55316;SDS011;41178;48.956;8.130;2022-08-18T15:00:29;11.00;;;9.70;;
55316;SDS011;41178;48.956;8.130;2022-08-18T15:02:31;10.25;;;9.25;;
55316;SDS011;41178;48.956;8.130;2022-08-18T15:04:33;9.98;;;9.07;;
55316;SDS011;41178;48.956;8.130;2022-08-18T15:06:53;9.35;;;8.45;;
55316;SDS011;41178;48.956;8.130;2022-08-18T15:08:57;8.90;;;8.10;;